createdAt,value
2018-05-25T00:00:13.665Z,17.01
2018-05-25T00:01:14.145Z,16.94
2018-05-25T00:02:13.777Z,16.99
2018-05-25T00:03:13.858Z,17.01
2018-05-25T00:04:13.917Z,16.97
2018-05-25T00:05:14.657Z,16.97
2018-05-25T00:06:14.054Z,17.02
2018-05-25T00:07:14.357Z,16.99
2018-05-25T00:08:14.175Z,16.97
2018-05-25T00:09:14.555Z,16.90
2018-05-25T00:10:14.450Z,16.99
2018-05-25T00:11:14.393Z,17.01
2018-05-25T00:12:14.441Z,16.93
2018-05-25T00:13:14.504Z,16.90
2018-05-25T00:14:14.582Z,16.90
2018-05-25T00:15:14.639Z,16.87
2018-05-25T00:16:14.706Z,16.86
2018-05-25T00:17:14.778Z,16.84
2018-05-25T00:18:14.834Z,16.84
2018-05-25T00:19:14.898Z,16.78
2018-05-25T00:20:15.383Z,16.79
2018-05-25T00:21:15.042Z,16.74
2018-05-25T00:22:15.442Z,16.78
2018-05-25T00:23:15.170Z,16.75
2018-05-25T00:24:15.230Z,16.76
2018-05-25T00:25:15.290Z,16.75
2018-05-25T00:26:15.370Z,16.72
2018-05-25T00:27:15.426Z,16.72
2018-05-25T00:28:15.486Z,16.74
2018-05-25T00:29:15.826Z,16.74
2018-05-25T00:30:15.622Z,16.68
2018-05-25T00:31:15.731Z,16.76
2018-05-25T00:32:15.762Z,16.71
2018-05-25T00:33:15.818Z,16.72
2018-05-25T00:34:15.884Z,16.66
2018-05-25T00:35:16.674Z,16.69
2018-05-25T00:36:16.038Z,16.58
2018-05-25T00:37:16.094Z,16.68
2018-05-25T00:38:16.146Z,16.69
2018-05-25T00:39:16.214Z,16.58
2018-05-25T00:40:16.274Z,16.66
2018-05-25T00:41:16.610Z,16.57
2018-05-25T00:42:16.410Z,16.56
2018-05-25T00:43:16.790Z,16.56
2018-05-25T00:44:16.538Z,16.57
2018-05-25T00:45:17.298Z,16.71
2018-05-25T00:46:16.674Z,16.74
2018-05-25T00:47:17.013Z,16.69
2018-05-25T00:48:17.042Z,16.69
2018-05-25T00:49:16.863Z,16.65
2018-05-25T00:50:16.930Z,16.68
2018-05-25T00:51:17.006Z,16.74
2018-05-25T00:52:17.070Z,16.66
2018-05-25T00:53:17.458Z,16.71
2018-05-25T00:54:17.195Z,16.75
2018-05-25T00:55:17.259Z,16.78
2018-05-25T00:56:17.811Z,16.76
2018-05-25T00:57:17.679Z,16.84
2018-05-25T00:58:17.455Z,16.84
2018-05-25T00:59:17.523Z,16.79
2018-05-25T01:00:17.588Z,16.86
2018-05-25T01:01:17.883Z,16.83
2018-05-25T01:02:17.727Z,16.87
2018-05-25T01:03:17.795Z,16.97
2018-05-25T01:04:17.851Z,16.97
2018-05-25T01:05:17.920Z,17.02
2018-05-25T01:06:17.979Z,17.08
2018-05-25T01:07:18.515Z,17.08
2018-05-25T01:08:18.119Z,17.12
2018-05-25T01:09:18.176Z,17.09
2018-05-25T01:10:18.435Z,17.12
2018-05-25T01:11:18.312Z,17.22
2018-05-25T01:12:18.380Z,17.27
2018-05-25T01:13:18.449Z,17.36
2018-05-25T01:14:18.505Z,17.33
2018-05-25T01:15:18.572Z,17.24
2018-05-25T01:16:18.640Z,17.38
2018-05-25T01:17:18.708Z,17.38
2018-05-25T01:18:18.772Z,17.42
2018-05-25T01:19:19.288Z,17.39
2018-05-25T01:20:19.278Z,17.48
2018-05-25T01:21:18.965Z,17.51
2018-05-25T01:22:19.042Z,17.57
2018-05-25T01:23:19.143Z,17.59
2018-05-25T01:24:19.164Z,17.54
2018-05-25T01:25:19.225Z,17.67
2018-05-25T01:26:19.292Z,17.65
2018-05-25T01:27:19.369Z,17.67
2018-05-25T01:28:19.429Z,17.65
2018-05-25T01:29:20.393Z,17.65
2018-05-25T01:30:19.557Z,17.60
2018-05-25T01:31:19.620Z,17.76
2018-05-25T01:32:19.693Z,17.67
2018-05-25T01:33:19.764Z,17.74
2018-05-25T01:34:19.817Z,17.71
2018-05-25T01:35:19.881Z,17.78
2018-05-25T01:36:19.953Z,17.78
2018-05-25T01:37:20.025Z,17.76
2018-05-25T01:38:20.085Z,17.80
2018-05-25T01:39:20.149Z,17.82
2018-05-25T01:40:20.210Z,17.76
2018-05-25T01:41:20.277Z,17.72
2018-05-25T01:42:20.461Z,17.70
2018-05-25T01:43:20.405Z,17.79
2018-05-25T01:44:20.473Z,17.64
2018-05-25T01:45:20.537Z,17.60
2018-05-25T01:46:20.609Z,17.68
2018-05-25T01:47:20.677Z,17.65
2018-05-25T01:48:20.741Z,17.68
2018-05-25T01:49:21.132Z,17.68
2018-05-25T01:50:21.118Z,17.63
2018-05-25T01:51:21.354Z,17.65
2018-05-25T01:52:21.001Z,17.64
2018-05-25T01:53:21.069Z,17.65
2018-05-25T01:54:21.130Z,17.49
2018-05-25T01:55:21.194Z,17.59
2018-05-25T01:56:21.257Z,17.52
2018-05-25T01:57:21.326Z,17.57
2018-05-25T01:58:21.410Z,17.56
2018-05-25T01:59:21.458Z,17.59
2018-05-25T02:00:21.526Z,17.52
2018-05-25T02:01:21.898Z,17.56
2018-05-25T02:02:22.174Z,17.52
2018-05-25T02:03:21.726Z,17.51
2018-05-25T02:04:21.790Z,17.45
2018-05-25T02:05:22.374Z,17.45
2018-05-25T02:06:21.914Z,17.45
2018-05-25T02:07:21.978Z,17.44
2018-05-25T02:08:22.051Z,17.42
2018-05-25T02:09:22.256Z,17.48
2018-05-25T02:10:22.170Z,17.44
2018-05-25T02:11:22.242Z,17.39
2018-05-25T02:12:22.726Z,17.45
2018-05-25T02:13:22.382Z,17.33
2018-05-25T02:14:22.631Z,17.33
2018-05-25T02:15:22.502Z,17.34
2018-05-25T02:16:22.791Z,17.42
2018-05-25T02:17:22.955Z,17.31
2018-05-25T02:18:22.707Z,17.31
2018-05-25T02:19:22.775Z,17.41
2018-05-25T02:20:22.831Z,17.36
2018-05-25T02:21:22.895Z,17.34
2018-05-25T02:22:23.307Z,17.24
2018-05-25T02:23:23.614Z,17.24
2018-05-25T02:24:23.099Z,17.26
2018-05-25T02:25:23.339Z,17.33
2018-05-25T02:26:23.219Z,17.29
2018-05-25T02:27:23.291Z,17.31
2018-05-25T02:28:23.359Z,17.36
2018-05-25T02:29:23.427Z,17.31
2018-05-25T02:30:23.500Z,17.27
2018-05-25T02:31:23.560Z,17.29
2018-05-25T02:32:23.623Z,17.27
2018-05-25T02:33:23.690Z,17.30
2018-05-25T02:34:24.510Z,17.29
2018-05-25T02:35:23.820Z,17.15
2018-05-25T02:36:23.880Z,17.20
2018-05-25T02:37:23.944Z,17.24
2018-05-25T02:38:24.016Z,17.23
2018-05-25T02:39:24.083Z,17.19
2018-05-25T02:40:24.472Z,17.20
2018-05-25T02:41:24.212Z,17.12
2018-05-25T02:42:24.272Z,17.09
2018-05-25T02:43:24.345Z,17.15
2018-05-25T02:44:24.412Z,17.08
2018-05-25T02:45:24.468Z,17.05
2018-05-25T02:46:24.532Z,17.04
2018-05-25T02:47:24.610Z,16.97
2018-05-25T02:48:24.672Z,17.01
2018-05-25T02:49:24.736Z,16.97
2018-05-25T02:50:24.802Z,17.02
2018-05-25T02:51:24.861Z,17.01
2018-05-25T02:52:24.924Z,16.97
2018-05-25T02:53:25.001Z,16.99
2018-05-25T02:54:25.248Z,17.01
2018-05-25T02:55:25.124Z,16.97
2018-05-25T02:56:25.189Z,16.99
2018-05-25T02:57:25.253Z,16.94
2018-05-25T02:58:25.337Z,16.99
2018-05-25T02:59:25.385Z,16.91
2018-05-25T03:00:25.453Z,16.89
2018-05-25T03:01:25.767Z,16.87
2018-05-25T03:02:25.580Z,16.83
2018-05-25T03:03:25.898Z,16.79
2018-05-25T03:04:25.717Z,16.81
2018-05-25T03:05:25.778Z,16.81
2018-05-25T03:06:26.339Z,16.74
2018-05-25T03:07:25.909Z,16.78
2018-05-25T03:08:25.977Z,16.68
2018-05-25T03:09:26.045Z,16.66
2018-05-25T03:10:26.105Z,16.69
2018-05-25T03:11:26.322Z,16.65
2018-05-25T03:12:26.233Z,16.75
2018-05-25T03:13:26.301Z,16.71
2018-05-25T03:14:26.541Z,16.57
2018-05-25T03:15:26.447Z,16.68
2018-05-25T03:16:26.493Z,16.61
2018-05-25T03:17:26.561Z,16.60
2018-05-25T03:18:26.625Z,16.49
2018-05-25T03:19:26.792Z,16.53
2018-05-25T03:20:26.761Z,16.57
2018-05-25T03:21:27.152Z,16.61
2018-05-25T03:22:26.885Z,16.64
2018-05-25T03:23:27.211Z,16.61
2018-05-25T03:24:27.165Z,16.68
2018-05-25T03:25:27.205Z,16.69
2018-05-25T03:26:27.149Z,16.71
2018-05-25T03:27:27.213Z,16.64
2018-05-25T03:28:27.277Z,16.68
2018-05-25T03:29:27.373Z,16.65
2018-05-25T03:30:27.410Z,16.58
2018-05-25T03:31:27.473Z,16.65
2018-05-25T03:32:27.544Z,16.66
2018-05-25T03:33:27.606Z,16.66
2018-05-25T03:34:27.678Z,16.65
2018-05-25T03:35:27.741Z,16.57
2018-05-25T03:36:28.105Z,16.66
2018-05-25T03:37:27.866Z,16.57
2018-05-25T03:38:28.275Z,16.74
2018-05-25T03:39:28.005Z,16.65
2018-05-25T03:40:28.066Z,16.61
2018-05-25T03:41:28.126Z,16.58
2018-05-25T03:42:28.575Z,16.60
2018-05-25T03:43:28.494Z,16.57
2018-05-25T03:44:28.594Z,16.57
2018-05-25T03:45:28.522Z,16.61
2018-05-25T03:46:28.454Z,16.64
2018-05-25T03:47:28.519Z,16.53
2018-05-25T03:48:28.582Z,16.54
2018-05-25T03:49:28.654Z,16.47
2018-05-25T03:50:28.722Z,16.53
2018-05-25T03:51:28.779Z,16.49
2018-05-25T03:52:28.842Z,16.41
2018-05-25T03:53:28.910Z,16.38
2018-05-25T03:54:28.983Z,16.38
2018-05-25T03:55:29.051Z,16.29
2018-05-25T03:56:29.106Z,16.29
2018-05-25T03:57:29.170Z,16.29
2018-05-25T03:58:29.234Z,16.26
2018-05-25T03:59:29.643Z,16.29
2018-05-25T04:00:29.638Z,16.26
2018-05-25T04:01:29.431Z,16.21
2018-05-25T04:02:29.499Z,16.32
2018-05-25T04:03:29.567Z,16.31
2018-05-25T04:04:29.630Z,16.20
2018-05-25T04:05:29.699Z,16.17
2018-05-25T04:06:29.763Z,16.23
2018-05-25T04:07:30.007Z,16.23
2018-05-25T04:08:29.887Z,16.28
2018-05-25T04:09:30.179Z,16.20
2018-05-25T04:10:30.026Z,16.16
2018-05-25T04:11:30.091Z,16.17
2018-05-25T04:12:30.147Z,16.21
2018-05-25T04:13:30.300Z,16.23
2018-05-25T04:14:30.283Z,16.26
2018-05-25T04:15:30.359Z,16.26
2018-05-25T04:16:30.415Z,16.23
2018-05-25T04:17:31.207Z,16.21
2018-05-25T04:18:30.539Z,16.24
2018-05-25T04:19:30.612Z,16.31
2018-05-25T04:20:30.673Z,16.26
2018-05-25T04:21:30.744Z,16.31
2018-05-25T04:22:31.470Z,16.35
2018-05-25T04:23:30.868Z,16.38
2018-05-25T04:24:30.992Z,16.46
2018-05-25T04:25:31.316Z,16.49
2018-05-25T04:26:31.073Z,16.54
2018-05-25T04:27:31.128Z,16.57
2018-05-25T04:28:31.193Z,16.58
2018-05-25T04:29:31.773Z,16.74
2018-05-25T04:30:31.833Z,16.74
2018-05-25T04:31:31.388Z,16.68
2018-05-25T04:32:31.454Z,16.79
2018-05-25T04:33:31.601Z,16.79
2018-05-25T04:34:31.585Z,16.81
2018-05-25T04:35:31.662Z,16.83
2018-05-25T04:36:31.866Z,16.90
2018-05-25T04:37:31.833Z,16.94
2018-05-25T04:38:31.849Z,17.02
2018-05-25T04:39:31.913Z,17.09
2018-05-25T04:40:31.990Z,17.14
2018-05-25T04:41:32.049Z,17.15
2018-05-25T04:42:32.109Z,17.11
2018-05-25T04:43:32.222Z,17.15
2018-05-25T04:44:32.241Z,17.24
2018-05-25T04:45:32.305Z,17.34
2018-05-25T04:46:32.769Z,17.22
2018-05-25T04:47:32.441Z,17.29
2018-05-25T04:48:32.501Z,17.38
2018-05-25T04:49:32.565Z,17.33
2018-05-25T04:50:32.939Z,17.41
2018-05-25T04:51:32.705Z,17.42
2018-05-25T04:52:32.769Z,17.44
2018-05-25T04:53:32.836Z,17.54
2018-05-25T04:54:32.893Z,17.51
2018-05-25T04:55:33.285Z,17.65
2018-05-25T04:56:33.034Z,17.78
2018-05-25T04:57:33.101Z,17.74
2018-05-25T04:58:33.157Z,17.79
2018-05-25T04:59:33.226Z,17.86
2018-05-25T05:00:33.289Z,17.94
2018-05-25T05:01:33.870Z,17.90
2018-05-25T05:02:33.434Z,17.87
2018-05-25T05:03:33.486Z,17.87
2018-05-25T05:04:33.553Z,17.97
2018-05-25T05:05:33.618Z,17.92
2018-05-25T05:06:33.691Z,17.97
2018-05-25T05:07:34.094Z,18.01
2018-05-25T05:08:33.820Z,18.05
2018-05-25T05:09:33.882Z,18.05
2018-05-25T05:10:33.947Z,18.08
2018-05-25T05:11:34.019Z,18.10
2018-05-25T05:12:34.214Z,18.16
2018-05-25T05:13:34.147Z,18.25
2018-05-25T05:14:34.211Z,18.23
2018-05-25T05:15:34.274Z,18.23
2018-05-25T05:16:35.187Z,18.26
2018-05-25T05:17:34.406Z,18.33
2018-05-25T05:18:34.476Z,18.19
2018-05-25T05:19:34.895Z,18.20
2018-05-25T05:20:34.763Z,18.20
2018-05-25T05:21:34.675Z,18.25
2018-05-25T05:22:34.751Z,18.19
2018-05-25T05:23:34.804Z,18.34
2018-05-25T05:24:34.871Z,18.38
2018-05-25T05:25:34.935Z,18.35
2018-05-25T05:26:35.011Z,18.47
2018-05-25T05:27:35.543Z,18.50
2018-05-25T05:28:35.139Z,18.45
2018-05-25T05:29:35.295Z,18.58
2018-05-25T05:30:35.535Z,18.55
2018-05-25T05:31:35.336Z,18.60
2018-05-25T05:32:35.403Z,18.63
2018-05-25T05:33:35.518Z,18.63
2018-05-25T05:34:35.535Z,18.73
2018-05-25T05:35:35.595Z,18.75
2018-05-25T05:36:35.663Z,18.71
2018-05-25T05:37:35.735Z,18.84
2018-05-25T05:38:36.236Z,18.83
2018-05-25T05:39:35.864Z,18.95
2018-05-25T05:40:36.279Z,18.92
2018-05-25T05:41:36.428Z,18.95
2018-05-25T05:42:36.072Z,19.11
2018-05-25T05:43:36.132Z,19.15
2018-05-25T05:44:36.191Z,19.14
2018-05-25T05:45:36.420Z,19.16
2018-05-25T05:46:36.324Z,19.24
2018-05-25T05:47:36.476Z,19.21
2018-05-25T05:48:36.684Z,19.41
2018-05-25T05:49:36.524Z,19.31
2018-05-25T05:50:36.588Z,19.37
2018-05-25T05:51:36.656Z,19.39
2018-05-25T05:52:36.728Z,19.44
2018-05-25T05:53:36.796Z,19.44
2018-05-25T05:54:36.860Z,19.45
2018-05-25T05:55:36.928Z,19.51
2018-05-25T05:56:36.988Z,19.56
2018-05-25T05:57:37.060Z,19.69
2018-05-25T05:58:37.128Z,19.69
2018-05-25T05:59:37.245Z,19.67
2018-05-25T06:00:37.256Z,19.77
2018-05-25T06:01:38.036Z,19.76
2018-05-25T06:02:37.396Z,19.81
2018-05-25T06:03:37.474Z,19.88
2018-05-25T06:04:37.521Z,19.85
2018-05-25T06:05:37.589Z,19.95
2018-05-25T06:06:37.656Z,19.95
2018-05-25T06:07:37.736Z,19.92
2018-05-25T06:08:37.793Z,20.09
2018-05-25T06:09:37.853Z,20.10
2018-05-25T06:10:37.929Z,20.10
2018-05-25T06:11:37.989Z,20.25
2018-05-25T06:12:38.073Z,20.31
2018-05-25T06:13:38.133Z,20.32
2018-05-25T06:14:38.198Z,20.31
2018-05-25T06:15:38.261Z,20.37
2018-05-25T06:16:38.321Z,20.48
2018-05-25T06:17:38.548Z,20.70
2018-05-25T06:18:38.457Z,20.80
2018-05-25T06:19:38.525Z,21.14
2018-05-25T06:20:39.197Z,21.60
2018-05-25T06:21:38.657Z,22.32
2018-05-25T06:22:38.737Z,22.87
2018-05-25T06:23:38.801Z,22.94
2018-05-25T06:24:38.861Z,23.50
2018-05-25T06:25:38.933Z,23.93
2018-05-25T06:26:39.006Z,24.38
2018-05-25T06:27:39.094Z,24.68
2018-05-25T06:28:39.272Z,24.78
2018-05-25T06:29:39.210Z,25.03
2018-05-25T06:30:39.285Z,24.95
2018-05-25T06:31:39.570Z,25.16
2018-05-25T06:32:39.430Z,25.32
2018-05-25T06:33:39.503Z,25.07
2018-05-25T06:34:39.565Z,25.16
2018-05-25T06:35:39.638Z,25.46
2018-05-25T06:36:39.962Z,25.81
2018-05-25T06:37:39.793Z,25.98
2018-05-25T06:38:39.862Z,26.26
2018-05-25T06:39:39.938Z,26.56
2018-05-25T06:40:40.002Z,26.80
2018-05-25T06:41:40.073Z,26.37
2018-05-25T06:42:40.162Z,26.81
2018-05-25T06:43:40.466Z,26.96
2018-05-25T06:44:40.298Z,27.39
2018-05-25T06:45:40.618Z,27.78
2018-05-25T06:46:41.058Z,27.90
2018-05-25T06:47:40.526Z,28.07
2018-05-25T06:48:40.604Z,28.45
2018-05-25T06:49:41.099Z,28.29
2018-05-25T06:50:40.755Z,28.62
2018-05-25T06:51:40.822Z,28.64
2018-05-25T06:52:40.907Z,28.37
2018-05-25T06:53:40.979Z,28.42
2018-05-25T06:54:41.051Z,28.70
2018-05-25T06:55:41.127Z,28.98
2018-05-25T06:56:41.207Z,29.36
2018-05-25T06:57:41.278Z,29.50
2018-05-25T06:58:43.138Z,29.72
2018-05-25T06:59:41.435Z,29.68
2018-05-25T07:00:41.559Z,29.47
2018-05-25T07:01:41.587Z,29.51
2018-05-25T07:02:41.658Z,29.49
2018-05-25T07:03:41.754Z,29.56
2018-05-25T07:04:41.855Z,29.42
2018-05-25T07:05:41.903Z,29.22
2018-05-25T07:06:41.979Z,28.75
2018-05-25T07:07:42.055Z,28.57
2018-05-25T07:08:42.132Z,27.85
2018-05-25T07:09:42.363Z,27.49
2018-05-25T07:10:42.291Z,27.12
2018-05-25T07:11:42.367Z,26.43
2018-05-25T07:12:42.439Z,25.84
2018-05-25T07:13:42.516Z,25.62
2018-05-25T07:14:42.624Z,25.36
2018-05-25T07:15:42.679Z,25.17
2018-05-25T07:16:42.744Z,24.78
2018-05-25T07:17:42.819Z,24.61
2018-05-25T07:18:42.892Z,24.28
2018-05-25T07:19:42.976Z,23.98
2018-05-25T07:20:43.108Z,23.91
2018-05-25T07:21:43.140Z,23.99
2018-05-25T07:22:43.189Z,23.92
2018-05-25T07:23:43.268Z,23.99
2018-05-25T07:24:43.356Z,23.86
2018-05-25T07:25:43.409Z,23.76
2018-05-25T07:26:43.497Z,23.58
2018-05-25T07:27:43.556Z,23.54
2018-05-25T07:28:43.636Z,23.46
2018-05-25T07:29:43.712Z,23.58
2018-05-25T07:30:43.781Z,23.88
2018-05-25T07:31:43.853Z,23.86
2018-05-25T07:32:43.918Z,23.87
2018-05-25T07:33:43.989Z,23.83
2018-05-25T07:34:44.469Z,23.74
2018-05-25T07:35:44.144Z,23.55
2018-05-25T07:36:44.217Z,23.43
2018-05-25T07:37:44.414Z,23.31
2018-05-25T07:38:44.502Z,23.36
2018-05-25T07:39:44.428Z,23.40
2018-05-25T07:40:44.545Z,23.58
2018-05-25T07:41:44.557Z,23.47
2018-05-25T07:42:44.633Z,23.61
2018-05-25T07:43:44.713Z,23.63
2018-05-25T07:44:44.789Z,23.68
2018-05-25T07:45:44.961Z,23.66
2018-05-25T07:46:45.001Z,23.83
2018-05-25T07:47:45.005Z,24.05
2018-05-25T07:48:45.093Z,24.24
2018-05-25T07:49:45.286Z,24.42
2018-05-25T07:50:45.385Z,24.50
2018-05-25T07:51:45.265Z,24.92
2018-05-25T07:52:45.353Z,25.51
2018-05-25T07:53:45.434Z,25.69
2018-05-25T07:54:45.789Z,25.78
2018-05-25T07:55:45.585Z,25.83
2018-05-25T07:56:45.626Z,26.40
2018-05-25T07:57:45.693Z,27.14
2018-05-25T07:58:45.842Z,27.58
2018-05-25T07:59:45.973Z,27.78
2018-05-25T08:00:45.941Z,27.48
2018-05-25T08:01:45.989Z,27.55
2018-05-25T08:02:46.053Z,27.54
2018-05-25T08:03:46.142Z,27.58
2018-05-25T08:04:46.234Z,27.80
2018-05-25T08:05:46.465Z,27.64
2018-05-25T08:06:46.366Z,27.27
2018-05-25T08:07:46.425Z,27.29
2018-05-25T08:08:46.514Z,27.74
2018-05-25T08:09:46.618Z,28.27
2018-05-25T08:10:46.886Z,28.69
2018-05-25T08:11:46.790Z,28.35
2018-05-25T08:12:46.822Z,28.69
2018-05-25T08:13:46.875Z,29.02
2018-05-25T08:14:46.958Z,28.82
2018-05-25T08:15:47.398Z,29.04
2018-05-25T08:16:47.131Z,29.36
2018-05-25T08:17:47.178Z,29.27
2018-05-25T08:18:47.246Z,29.44
2018-05-25T08:19:47.324Z,29.17
2018-05-25T08:20:47.577Z,28.88
2018-05-25T08:21:47.543Z,28.49
2018-05-25T08:22:48.318Z,28.47
2018-05-25T08:23:47.678Z,28.32
2018-05-25T08:24:49.291Z,28.25
2018-05-25T08:25:47.790Z,27.83
2018-05-25T08:26:47.859Z,27.32
2018-05-25T08:27:47.926Z,27.07
2018-05-25T08:28:48.007Z,26.84
2018-05-25T08:29:48.079Z,26.62
2018-05-25T08:30:48.402Z,26.09
2018-05-25T08:31:48.227Z,26.00
2018-05-25T08:32:48.294Z,25.84
2018-05-25T08:33:48.374Z,26.05
2018-05-25T08:34:48.450Z,26.16
2018-05-25T08:35:48.563Z,26.44
2018-05-25T08:36:48.639Z,26.71
2018-05-25T08:37:48.683Z,27.18
2018-05-25T08:38:48.747Z,27.12
2018-05-25T08:39:48.815Z,27.11
2018-05-25T08:40:48.895Z,26.88
2018-05-25T08:41:48.974Z,27.22
2018-05-25T08:42:49.039Z,27.26
2018-05-25T08:43:49.111Z,27.39
2018-05-25T08:44:49.187Z,28.20
2018-05-25T08:45:49.275Z,28.64
2018-05-25T08:46:49.331Z,29.22
2018-05-25T08:47:49.410Z,29.42
2018-05-25T08:48:49.483Z,29.23
2018-05-25T08:49:49.559Z,29.69
2018-05-25T08:50:49.636Z,29.88
2018-05-25T08:51:49.711Z,30.15
2018-05-25T08:52:49.779Z,30.54
2018-05-25T08:53:49.855Z,30.70
2018-05-25T08:54:49.931Z,30.81
2018-05-25T08:55:50.011Z,30.88
2018-05-25T08:56:50.088Z,31.25
2018-05-25T08:57:50.201Z,31.31
2018-05-25T08:58:50.231Z,31.34
2018-05-25T08:59:50.311Z,31.40
2018-05-25T09:00:50.408Z,31.42
2018-05-25T09:01:50.469Z,31.37
2018-05-25T09:02:50.536Z,31.22
2018-05-25T09:03:50.611Z,31.34
2018-05-25T09:04:50.715Z,31.22
2018-05-25T09:05:50.772Z,31.39
2018-05-25T09:06:50.859Z,31.37
2018-05-25T09:07:50.919Z,31.18
2018-05-25T09:08:51.016Z,31.22
2018-05-25T09:09:51.072Z,31.29
2018-05-25T09:10:51.337Z,30.85
2018-05-25T09:11:51.255Z,30.88
2018-05-25T09:12:51.383Z,31.00
2018-05-25T09:13:51.404Z,31.06
2018-05-25T09:14:51.480Z,31.33
2018-05-25T09:15:51.544Z,31.49
2018-05-25T09:16:51.619Z,31.24
2018-05-25T09:17:51.688Z,31.02
2018-05-25T09:18:51.764Z,31.03
2018-05-25T09:19:51.840Z,30.91
2018-05-25T09:20:51.924Z,30.88
2018-05-25T09:21:52.027Z,30.85
2018-05-25T09:22:52.069Z,30.97
2018-05-25T09:23:52.145Z,31.05
2018-05-25T09:24:52.222Z,31.27
2018-05-25T09:25:52.316Z,31.37
2018-05-25T09:26:52.380Z,31.65
2018-05-25T09:27:52.452Z,31.74
2018-05-25T09:28:52.529Z,31.78
2018-05-25T09:29:52.605Z,31.92
2018-05-25T09:30:52.742Z,32.12
2018-05-25T09:31:52.796Z,31.93
2018-05-25T09:32:52.832Z,31.78
2018-05-25T09:33:52.909Z,31.69
2018-05-25T09:34:52.985Z,31.59
2018-05-25T09:35:53.069Z,31.69
2018-05-25T09:36:53.145Z,31.62
2018-05-25T09:37:53.218Z,31.87
2018-05-25T09:38:53.293Z,31.97
2018-05-25T09:39:53.370Z,31.92
2018-05-25T09:40:53.452Z,31.85
2018-05-25T09:41:53.529Z,31.90
2018-05-25T09:42:53.600Z,31.74
2018-05-25T09:43:53.673Z,31.65
2018-05-25T09:44:53.754Z,31.47
2018-05-25T09:45:53.837Z,31.46
2018-05-25T09:46:53.910Z,31.51
2018-05-25T09:47:53.977Z,31.54
2018-05-25T09:48:54.080Z,31.52
2018-05-25T09:49:54.130Z,31.58
2018-05-25T09:50:54.550Z,31.73
2018-05-25T09:51:54.294Z,30.84
2018-05-25T09:52:54.358Z,31.29
2018-05-25T09:53:54.434Z,31.61
2018-05-25T09:54:54.514Z,31.24
2018-05-25T09:55:54.598Z,30.66
2018-05-25T09:56:54.674Z,31.10
2018-05-25T09:57:54.742Z,31.43
2018-05-25T09:58:54.814Z,31.31
2018-05-25T09:59:54.890Z,31.43
2018-05-25T10:00:54.974Z,30.61
2018-05-25T10:01:55.050Z,30.46
2018-05-25T10:02:55.122Z,30.25
2018-05-25T10:03:55.194Z,29.42
2018-05-25T10:04:55.270Z,28.98
2018-05-25T10:05:55.498Z,28.76
2018-05-25T10:06:55.418Z,28.49
2018-05-25T10:07:55.502Z,29.01
2018-05-25T10:08:55.567Z,28.76
2018-05-25T10:09:55.642Z,29.31
2018-05-25T10:10:55.723Z,29.57
2018-05-25T10:11:55.799Z,30.03
2018-05-25T10:12:55.867Z,30.57
2018-05-25T10:13:55.939Z,31.00
2018-05-25T10:14:56.019Z,31.03
2018-05-25T10:15:56.198Z,30.92
2018-05-25T10:16:56.163Z,30.85
2018-05-25T10:17:56.289Z,30.90
2018-05-25T10:18:56.311Z,31.22
2018-05-25T10:19:56.387Z,31.20
2018-05-25T10:20:56.467Z,31.22
2018-05-25T10:21:56.543Z,31.21
2018-05-25T10:22:56.608Z,31.54
2018-05-25T10:23:56.683Z,31.03
2018-05-25T10:24:56.815Z,31.02
2018-05-25T10:25:56.839Z,31.03
2018-05-25T10:26:56.911Z,31.29
2018-05-25T10:27:56.983Z,31.55
2018-05-25T10:28:57.055Z,31.65
2018-05-25T10:29:57.131Z,31.70
2018-05-25T10:30:57.231Z,31.61
2018-05-25T10:31:57.280Z,31.76
2018-05-25T10:32:57.351Z,31.70
2018-05-25T10:33:57.427Z,31.40
2018-05-25T10:34:57.550Z,31.14
2018-05-25T10:35:57.583Z,31.09
2018-05-25T10:36:57.655Z,31.21
2018-05-25T10:37:57.723Z,31.17
2018-05-25T10:38:57.811Z,31.20
2018-05-25T10:39:57.875Z,31.39
2018-05-25T10:40:57.986Z,31.66
2018-05-25T10:41:58.032Z,31.70
2018-05-25T10:42:58.095Z,31.66
2018-05-25T10:43:58.169Z,31.64
2018-05-25T10:44:58.244Z,31.37
2018-05-25T10:45:58.316Z,31.49
2018-05-25T10:46:58.543Z,31.70
2018-05-25T10:47:58.464Z,32.03
2018-05-25T10:48:58.544Z,31.94
2018-05-25T10:49:58.612Z,31.92
2018-05-25T10:50:58.697Z,31.62
2018-05-25T10:51:58.768Z,31.52
2018-05-25T10:52:58.844Z,30.97
2018-05-25T10:53:58.912Z,30.54
2018-05-25T10:54:58.996Z,30.24
2018-05-25T10:55:59.109Z,30.13
2018-05-25T10:56:59.208Z,30.32
2018-05-25T10:57:59.208Z,30.53
2018-05-25T10:58:59.280Z,30.46
2018-05-25T10:59:59.361Z,30.70
2018-05-25T11:00:59.431Z,30.87
2018-05-25T11:01:59.508Z,31.00
2018-05-25T11:02:59.581Z,31.17
2018-05-25T11:03:59.653Z,31.22
2018-05-25T11:04:59.730Z,31.36
2018-05-25T11:05:59.805Z,31.55
2018-05-25T11:06:59.880Z,31.40
2018-05-25T11:08:00.000Z,31.25
2018-05-25T11:09:00.021Z,31.15
2018-05-25T11:10:00.114Z,31.39
2018-05-25T11:11:00.190Z,31.34
2018-05-25T11:12:00.261Z,31.25
2018-05-25T11:13:00.325Z,31.34
2018-05-25T11:14:00.393Z,31.14
2018-05-25T11:15:00.470Z,30.70
2018-05-25T11:16:00.553Z,30.78
2018-05-25T11:17:00.629Z,30.78
2018-05-25T11:18:00.708Z,30.51
2018-05-25T11:19:00.769Z,30.19
2018-05-25T11:20:00.841Z,29.44
2018-05-25T11:21:00.936Z,29.17
2018-05-25T11:22:00.993Z,28.98
2018-05-25T11:23:01.065Z,28.91
2018-05-25T11:24:01.133Z,28.84
2018-05-25T11:25:01.206Z,29.05
2018-05-25T11:26:01.282Z,29.22
2018-05-25T11:27:01.406Z,29.60
2018-05-25T11:28:01.450Z,29.93
2018-05-25T11:29:01.529Z,30.15
2018-05-25T11:30:01.586Z,30.21
2018-05-25T11:31:01.658Z,30.43
2018-05-25T11:32:01.722Z,30.68
2018-05-25T11:33:01.803Z,30.66
2018-05-25T11:34:01.874Z,30.65
2018-05-25T11:35:01.962Z,30.70
2018-05-25T11:36:02.027Z,30.65
2018-05-25T11:37:02.090Z,30.53
2018-05-25T11:38:02.515Z,30.32
2018-05-25T11:39:02.238Z,30.24
2018-05-25T11:40:02.314Z,30.09
2018-05-25T11:41:02.382Z,29.95
2018-05-25T11:42:02.459Z,29.86
2018-05-25T11:43:02.539Z,29.94
2018-05-25T11:44:02.611Z,30.06
2018-05-25T11:45:02.679Z,30.19
2018-05-25T11:46:02.752Z,30.24
2018-05-25T11:47:02.827Z,30.27
2018-05-25T11:48:02.915Z,30.21
2018-05-25T11:49:02.978Z,30.23
2018-05-25T11:50:03.047Z,30.13
2018-05-25T11:51:03.735Z,30.09
2018-05-25T11:52:03.193Z,30.03
2018-05-25T11:53:03.449Z,29.76
2018-05-25T11:54:03.783Z,29.69
2018-05-25T11:55:03.411Z,29.98
2018-05-25T11:56:03.944Z,30.10
2018-05-25T11:57:04.355Z,30.05
2018-05-25T11:58:03.639Z,30.10
2018-05-25T11:59:03.827Z,30.16
2018-05-25T12:00:03.835Z,30.10
2018-05-25T12:01:04.224Z,30.19
2018-05-25T12:02:03.931Z,30.44
2018-05-25T12:03:04.039Z,30.37
2018-05-25T12:04:04.084Z,30.65
2018-05-25T12:05:04.483Z,30.77
2018-05-25T12:06:04.224Z,30.78
2018-05-25T12:07:04.295Z,30.73
2018-05-25T12:08:04.378Z,31.05
2018-05-25T12:09:04.791Z,31.05
2018-05-25T12:10:04.515Z,30.91
2018-05-25T12:11:04.588Z,30.87
2018-05-25T12:12:04.660Z,30.83
2018-05-25T12:13:05.460Z,30.51
2018-05-25T12:14:04.820Z,30.39
2018-05-25T12:15:04.888Z,30.28
2018-05-25T12:16:05.159Z,30.19
2018-05-25T12:17:05.031Z,30.47
2018-05-25T12:18:05.222Z,30.25
2018-05-25T12:19:05.200Z,30.16
2018-05-25T12:20:05.248Z,29.98
2018-05-25T12:21:05.320Z,29.86
2018-05-25T12:22:05.404Z,30.09
2018-05-25T12:23:05.554Z,30.48
2018-05-25T12:24:05.552Z,30.63
2018-05-25T12:25:05.620Z,30.90
2018-05-25T12:26:05.689Z,31.14
2018-05-25T12:27:05.772Z,31.20
2018-05-25T12:28:05.864Z,31.22
2018-05-25T12:29:05.921Z,31.25
2018-05-25T12:30:06.189Z,31.34
2018-05-25T12:31:06.062Z,31.51
2018-05-25T12:32:06.137Z,31.51
2018-05-25T12:33:06.205Z,31.61
2018-05-25T12:34:06.488Z,31.54
2018-05-25T12:35:06.358Z,31.54
2018-05-25T12:36:06.425Z,31.61
2018-05-25T12:37:06.501Z,31.54
2018-05-25T12:38:06.648Z,31.42
2018-05-25T12:39:06.657Z,31.51
2018-05-25T12:40:06.729Z,31.33
2018-05-25T12:41:06.793Z,31.36
2018-05-25T12:42:06.869Z,30.91
2018-05-25T12:43:06.941Z,31.02
2018-05-25T12:44:07.022Z,31.05
2018-05-25T12:45:07.097Z,31.07
2018-05-25T12:46:07.165Z,31.18
2018-05-25T12:47:07.237Z,31.05
2018-05-25T12:48:07.317Z,30.94
2018-05-25T12:49:07.589Z,30.90
2018-05-25T12:50:07.457Z,30.84
2018-05-25T12:51:07.533Z,30.80
2018-05-25T12:52:07.613Z,30.72
2018-05-25T12:53:07.678Z,30.72